Time;durP1;ratioP1;P1;durP2;ratioP2;P2;SDS_P1;SDS_P2;PMS_P1;PMS_P2;Temp;Humidity;BMP_temperature;BMP_pressure;BME280_temperature;BME280_humidity;BME280_pressure;Samples;Min_cycle;Max_cycle;Signal;HPM_P1;HPM_P2
2023/06/16 00:01:30;;;;;;;11.63;6.38;;;;;;;21.84;100.00;99887.06;4973586;28;20039;-68
2023/06/16 00:03:56;;;;;;;14.43;7.03;;;;;;;21.72;100.00;99882.88;4973689;28;20055;-65
2023/06/16 00:06:27;;;;;;;10.48;7.28;;;;;;;21.34;100.00;99838.00;4973474;28;20026;-66
2023/06/16 00:08:54;;;;;;;9.88;7.15;;;;;;;21.65;100.00;99887.38;4973640;28;20075;-71
2023/06/16 00:11:20;;;;;;;11.95;7.22;;;;;;;21.70;100.00;99893.41;4973539;28;20035;-67
2023/06/16 00:13:47;;;;;;;11.13;7.35;;;;;;;21.73;100.00;99877.63;4986658;28;20039;-67
2023/06/16 00:16:14;;;;;;;8.35;6.75;;;;;;;21.54;100.00;99870.94;4973619;28;20027;-67
2023/06/16 00:18:43;;;;;;;9.35;7.15;;;;;;;21.34;100.00;99851.97;4973577;28;20064;-68
2023/06/16 00:21:13;;;;;;;9.05;7.25;;;;;;;21.29;100.00;99872.19;4972818;28;20026;-68
2023/06/16 00:23:38;;;;;;;10.68;7.30;;;;;;;21.20;100.00;99868.84;4961692;28;20043;-68
2023/06/16 00:26:04;;;;;;;10.27;7.53;;;;;;;20.76;100.00;99793.47;4972443;28;20019;-69
2023/06/16 00:28:29;;;;;;;12.15;7.88;;;;;;;21.35;100.00;99871.25;4973279;28;20031;-69
2023/06/16 00:30:55;;;;;;;10.27;7.45;;;;;;;21.36;100.00;99880.84;4973021;28;20062;-70
2023/06/16 00:33:20;;;;;;;9.00;7.32;;;;;;;21.33;100.00;99871.28;4973302;28;20038;-67
2023/06/16 00:35:46;;;;;;;9.85;7.68;;;;;;;21.33;100.00;99862.50;4972639;28;20461;-64
2023/06/16 00:38:12;;;;;;;11.73;8.13;;;;;;;21.25;100.00;99869.69;4973083;28;20044;-65
2023/06/16 00:40:38;;;;;;;13.40;8.32;;;;;;;21.28;100.00;99877.47;4972053;28;20031;-68
2023/06/16 00:43:03;;;;;;;10.98;7.68;;;;;;;21.07;100.00;99873.44;4973418;28;20041;-71
2023/06/16 00:45:29;;;;;;;11.65;7.40;;;;;;;21.04;100.00;99869.13;4972486;28;20034;-66
2023/06/16 00:47:56;;;;;;;11.20;8.40;;;;;;;21.03;100.00;99856.88;4972541;28;20033;-68
2023/06/16 00:50:23;;;;;;;16.25;8.95;;;;;;;20.96;100.00;99861.38;4972599;28;20038;-68
2023/06/16 00:52:50;;;;;;;13.18;8.40;;;;;;;20.55;100.00;99806.88;4972620;28;20409;-70
2023/06/16 00:58:37;;;;;;;15.50;9.18;;;;;;;20.69;100.00;99852.97;5037574;23;20415;-68
2023/06/16 01:01:03;;;;;;;13.27;9.25;;;;;;;20.69;100.00;99847.75;5012573;28;20022;-68
2023/06/16 01:03:29;;;;;;;11.68;9.20;;;;;;;20.66;100.00;99853.03;5001638;28;20029;-65
2023/06/16 01:06:00;;;;;;;16.65;10.55;;;;;;;20.68;100.00;99861.75;4994321;28;20027;-66
2023/06/16 01:08:48;;;;;;;13.15;9.70;;;;;;;20.64;100.00;99864.44;5012088;28;20032;-68
2023/06/16 01:11:26;;;;;;;12.10;10.40;;;;;;;20.59;100.00;99850.53;5010776;28;20472;-68
2023/06/16 01:13:58;;;;;;;12.70;10.27;;;;;;;20.66;100.00;99857.41;5012109;28;20022;-66
2023/06/16 01:16:30;;;;;;;13.00;11.05;;;;;;;20.59;100.00;99834.81;5011906;28;20049;-67
2023/06/16 01:18:58;;;;;;;14.45;11.25;;;;;;;20.62;100.00;99851.38;5012020;28;20041;-66
2023/06/16 01:21:40;;;;;;;13.57;11.35;;;;;;;20.65;100.00;99845.22;5011750;28;20021;-66
2023/06/16 01:24:09;;;;;;;12.82;11.27;;;;;;;20.67;100.00;99841.66;5011294;28;20389;-71
2023/06/16 01:26:44;;;;;;;14.27;11.60;;;;;;;20.70;100.00;99838.13;5011931;28;20088;-69
2023/06/16 01:29:12;;;;;;;15.18;10.85;;;;;;;20.74;100.00;99845.09;5011481;28;20041;-68
2023/06/16 01:31:40;;;;;;;13.43;11.18;;;;;;;20.82;100.00;99848.47;5011844;28;20473;-68
2023/06/16 01:36:41;;;;;;;15.57;11.63;;;;;;;20.87;100.00;99839.66;5093779;23;20124;-68
2023/06/16 01:39:08;;;;;;;12.45;11.15;;;;;;;20.69;100.00;99821.50;4996035;28;20040;-69
2023/06/16 01:41:36;;;;;;;14.25;11.98;;;;;;;20.70;100.00;99838.13;4992609;28;20416;-68
2023/06/16 01:44:02;;;;;;;15.30;11.38;;;;;;;20.45;100.00;99811.38;5011074;28;20038;-70
2023/06/16 01:46:30;;;;;;;13.35;12.00;;;;;;;20.68;100.00;99839.91;5010965;28;20022;-67
2023/06/16 01:48:56;;;;;;;12.55;11.23;;;;;;;20.64;100.00;99838.22;5010892;28;20993;-66
2023/06/16 01:51:21;;;;;;;15.35;12.23;;;;;;;20.67;100.00;99840.78;5009239;28;20078;-70
2023/06/16 01:53:48;;;;;;;13.77;12.25;;;;;;;20.53;100.00;99826.09;5010281;28;20113;-72
2023/06/16 01:56:15;;;;;;;14.85;11.70;;;;;;;20.53;100.00;99823.47;5011159;28;20587;-69
2023/06/16 01:58:41;;;;;;;14.38;12.32;;;;;;;20.59;100.00;99821.69;5011148;28;20037;-69
2023/06/16 02:01:07;;;;;;;17.17;11.88;;;;;;;20.70;100.00;99840.75;5024959;28;20041;-64
2023/06/16 02:03:48;;;;;;;14.80;12.63;;;;;;;20.53;100.00;99815.63;5010406;28;20084;-67
2023/06/16 02:06:32;;;;;;;14.70;12.25;;;;;;;20.56;100.00;99834.84;5010921;28;20096;-68
2023/06/16 02:09:02;;;;;;;15.38;13.02;;;;;;;20.59;100.00;99826.94;4998052;28;20034;-66
2023/06/16 02:11:27;;;;;;;21.05;12.77;;;;;;;20.69;100.00;99832.00;4991341;28;20026;-70
2023/06/16 02:13:54;;;;;;;28.05;13.88;;;;;;;20.75;100.00;99820.59;4991679;28;20026;-69
2023/06/16 02:16:20;;;;;;;40.95;15.55;;;;;;;20.55;100.00;99780.66;4991790;28;20033;-66
2023/06/16 02:18:49;;;;;;;39.17;14.90;;;;;;;20.89;100.00;99828.25;4991398;28;20576;-67
2023/06/16 02:21:15;;;;;;;52.95;15.40;;;;;;;20.97;100.00;99831.63;4991259;28;20030;-69
2023/06/16 02:23:40;;;;;;;54.38;16.13;;;;;;;21.03;100.00;99837.66;4991692;28;20098;-70
2023/06/16 02:26:05;;;;;;;49.63;15.10;;;;;;;21.01;100.00;99824.56;4991196;28;20513;-69
2023/06/16 02:28:31;;;;;;;58.75;14.80;;;;;;;21.11;100.00;99833.13;4991239;28;20046;-69
2023/06/16 02:30:56;;;;;;;58.88;15.15;;;;;;;20.78;100.00;99775.94;4992722;28;20377;-67
2023/06/16 02:33:23;;;;;;;53.00;13.38;;;;;;;21.16;100.00;99837.44;5013649;28;20113;-67
2023/06/16 02:35:48;;;;;;;59.25;14.85;;;;;;;21.11;100.00;99831.38;5007157;28;20060;-67
2023/06/16 02:38:14;;;;;;;47.20;14.02;;;;;;;21.19;100.00;99836.50;5025920;28;20033;-68
2023/06/16 02:40:39;;;;;;;44.20;13.77;;;;;;;21.20;100.00;99837.34;5026140;28;20555;-68
2023/06/16 02:43:05;;;;;;;43.67;15.13;;;;;;;21.19;100.00;99841.75;5025699;28;20026;-70
2023/06/16 02:45:30;;;;;;;49.63;15.10;;;;;;;21.17;100.00;99840.91;5026066;28;20033;-67
2023/06/16 02:47:56;;;;;;;43.45;14.82;;;;;;;21.01;100.00;99821.94;5026118;28;20529;-67
2023/06/16 02:50:22;;;;;;;44.40;15.02;;;;;;;21.01;100.00;99819.31;5025940;28;20018;-68
2023/06/16 02:52:48;;;;;;;36.78;14.98;;;;;;;21.14;100.00;99841.81;5026124;28;20029;-66
2023/06/16 02:55:15;;;;;;;40.88;14.43;;;;;;;21.05;100.00;99839.38;5028302;28;20486;-68
2023/06/16 02:57:41;;;;;;;18.13;13.38;;;;;;;20.96;100.00;99832.50;5029338;28;20407;-67
2023/06/16 03:00:09;;;;;;;33.42;13.90;;;;;;;20.93;100.00;99834.31;5029760;28;20120;-72
2023/06/16 03:02:35;;;;;;;20.27;13.20;;;;;;;20.90;100.00;99819.50;5029489;28;20492;-67
2023/06/16 03:05:02;;;;;;;31.58;15.27;;;;;;;20.87;100.00;99831.78;5009462;28;20101;-67
2023/06/16 03:07:31;;;;;;;41.35;14.80;;;;;;;20.92;100.00;99828.22;5009868;28;20034;-67
2023/06/16 03:09:57;;;;;;;39.72;14.57;;;;;;;20.83;100.00;99813.44;5009570;28;20112;-69
2023/06/16 03:12:22;;;;;;;40.90;13.57;;;;;;;20.87;100.00;99831.78;5009510;28;20030;-66
2023/06/16 03:14:48;;;;;;;38.35;14.13;;;;;;;20.78;100.00;99814.44;5010064;28;20060;-67
2023/06/16 03:17:13;;;;;;;42.40;15.18;;;;;;;20.76;100.00;99814.47;5010045;28;20481;-66
2023/06/16 03:19:42;;;;;;;29.73;13.38;;;;;;;20.85;100.00;99819.56;5024171;28;20415;-70
2023/06/16 03:22:08;;;;;;;23.60;13.80;;;;;;;20.55;100.00;99767.53;5009791;28;20068;-67
2023/06/16 03:24:33;;;;;;;22.80;12.93;;;;;;;20.90;100.00;99816.88;5009895;28;20176;-68
2023/06/16 03:26:59;;;;;;;16.38;12.88;;;;;;;20.77;100.00;99826.69;5010312;28;20481;-67
2023/06/16 03:29:24;;;;;;;15.05;13.32;;;;;;;20.38;100.00;99776.53;5009910;28;20034;-68
2023/06/16 03:31:49;;;;;;;18.67;13.50;;;;;;;20.51;100.00;99806.03;5009971;28;20030;-65
2023/06/16 03:34:15;;;;;;;17.88;12.75;;;;;;;20.58;100.00;99819.94;5012863;28;20404;-69
2023/06/16 03:36:40;;;;;;;19.20;13.25;;;;;;;20.42;100.00;99812.28;5013348;28;20042;-66
2023/06/16 03:39:06;;;;;;;18.65;14.10;;;;;;;20.50;100.00;99823.53;5013500;28;20026;-72
2023/06/16 03:41:32;;;;;;;17.40;14.05;;;;;;;20.20;100.00;99765.41;5012191;28;20030;-68
2023/06/16 03:43:58;;;;;;;23.73;13.23;;;;;;;20.52;100.00;99821.78;5013794;28;20026;-67
2023/06/16 03:46:23;;;;;;;25.40;14.40;;;;;;;20.62;100.00;99813.75;5013550;28;20029;-67
2023/06/16 03:48:49;;;;;;;25.55;14.60;;;;;;;20.64;100.00;99812.00;5013680;28;20056;-66
2023/06/16 03:51:15;;;;;;;24.63;13.45;;;;;;;20.67;100.00;99817.19;5013447;28;20472;-67
2023/06/16 03:53:41;;;;;;;22.63;13.63;;;;;;;20.65;100.00;99808.50;5013304;28;20110;-69
2023/06/16 03:56:07;;;;;;;26.30;13.82;;;;;;;20.23;100.00;99735.69;5013104;28;20467;-71
2023/06/16 03:58:33;;;;;;;25.02;14.38;;;;;;;20.76;100.00;99817.09;5012105;28;20033;-67
2023/06/16 04:00:58;;;;;;;25.85;14.00;;;;;;;20.84;100.00;99816.97;5012941;28;20032;-66
2023/06/16 04:03:26;;;;;;;17.50;13.30;;;;;;;20.78;100.00;99819.69;5009685;28;20038;-67
2023/06/16 04:05:53;;;;;;;19.23;14.57;;;;;;;20.78;100.00;99806.56;5004084;28;20168;-66
2023/06/16 04:08:18;;;;;;;19.75;14.38;;;;;;;20.72;100.00;99811.91;5009437;28;20024;-69
2023/06/16 04:10:45;;;;;;;20.60;14.52;;;;;;;20.28;100.00;99756.59;5011515;28;20022;-67
2023/06/16 04:13:31;;;;;;;19.88;13.63;;;;;;;20.69;100.00;99816.25;5001941;28;20026;-68
2023/06/16 04:15:56;;;;;;;23.23;15.18;;;;;;;20.60;100.00;99797.16;5006967;28;20507;-65
2023/06/16 04:18:22;;;;;;;21.08;13.43;;;;;;;20.66;100.00;99818.06;5009211;28;20045;-67
2023/06/16 04:20:47;;;;;;;23.33;14.95;;;;;;;20.57;100.00;99800.72;5008440;28;20405;-71
2023/06/16 04:23:13;;;;;;;18.95;14.30;;;;;;;20.66;100.00;99812.81;5004290;28;20128;-67
2023/06/16 04:25:38;;;;;;;25.50;14.55;;;;;;;20.66;100.00;99820.69;5003031;28;20038;-66
2023/06/16 04:28:13;;;;;;;20.85;14.75;;;;;;;20.41;100.00;99786.09;5009103;28;20396;-67
2023/06/16 04:30:39;;;;;;;22.10;14.65;;;;;;;20.64;100.00;99817.25;5015025;28;20463;-66
2023/06/16 04:33:05;;;;;;;20.52;14.13;;;;;;;20.66;100.00;99815.44;4991334;28;20594;-68
2023/06/16 04:35:31;;;;;;;23.15;14.82;;;;;;;20.45;100.00;99800.88;5008712;28;20140;-68
2023/06/16 04:37:57;;;;;;;18.40;13.85;;;;;;;20.52;100.00;99803.44;5004302;28;20019;-66
2023/06/16 04:40:24;;;;;;;20.75;13.93;;;;;;;20.62;100.00;99811.13;4982936;28;20029;-68
2023/06/16 04:42:50;;;;;;;21.52;14.60;;;;;;;20.59;100.00;99817.31;5008069;28;20084;-70
2023/06/16 04:45:17;;;;;;;17.83;13.75;;;;;;;20.56;100.00;99805.97;4993132;28;20042;-69
2023/06/16 04:47:42;;;;;;;19.92;15.05;;;;;;;20.59;100.00;99806.81;5011085;28;20030;-68
2023/06/16 04:50:09;;;;;;;15.95;14.23;;;;;;;20.58;100.00;99801.59;5012395;28;20576;-69
2023/06/16 04:52:36;;;;;;;16.20;13.77;;;;;;;20.59;100.00;99805.97;5012489;28;20037;-67
2023/06/16 04:55:03;;;;;;;19.00;13.80;;;;;;;20.59;100.00;99806.81;5009990;28;20469;-66
2023/06/16 04:57:28;;;;;;;16.33;13.98;;;;;;;20.72;100.00;99810.13;5003315;28;20040;-70
2023/06/16 04:59:54;;;;;;;17.70;12.82;;;;;;;20.70;100.00;99806.66;4992560;28;20042;-68
2023/06/16 05:02:19;;;;;;;23.38;13.20;;;;;;;20.62;100.00;99795.41;5001345;28;20085;-69
2023/06/16 05:04:48;;;;;;;17.17;13.70;;;;;;;20.65;100.00;99793.59;5011681;28;21099;-69
2023/06/16 05:07:13;;;;;;;22.40;12.77;;;;;;;20.74;100.00;99804.88;5011792;28;20032;-67
2023/06/16 05:09:39;;;;;;;17.75;11.52;;;;;;;20.75;100.00;99806.59;5011428;28;20045;-65
2023/06/16 05:12:06;;;;;;;15.60;12.15;;;;;;;20.81;100.00;99809.13;5008455;28;20052;-69
2023/06/16 05:14:32;;;;;;;13.13;11.38;;;;;;;20.81;100.00;99793.38;5011690;28;20032;-68
2023/06/16 05:16:58;;;;;;;15.32;12.13;;;;;;;20.84;100.00;99788.09;5011319;28;20101;-69
2023/06/16 05:19:23;;;;;;;19.48;12.00;;;;;;;20.89;100.00;99798.53;5009910;28;20021;-65
2023/06/16 05:21:49;;;;;;;16.27;12.02;;;;;;;20.70;100.00;99743.72;5010541;28;20435;-67
2023/06/16 05:24:14;;;;;;;15.68;11.07;;;;;;;20.93;100.00;99781.84;5011600;28;20080;-69
2023/06/16 05:26:41;;;;;;;17.92;12.05;;;;;;;20.95;100.00;99786.16;5011217;28;20564;-67
2023/06/16 05:29:06;;;;;;;16.05;11.38;;;;;;;21.09;100.00;99795.56;5009805;28;20096;-65
2023/06/16 05:31:33;;;;;;;16.30;11.95;;;;;;;21.13;100.00;99810.34;5010861;28;20022;-68
2023/06/16 05:33:59;;;;;;;15.70;11.18;;;;;;;21.04;100.00;99808.75;5010995;28;20038;-67
2023/06/16 05:36:24;;;;;;;17.85;11.50;;;;;;;20.60;100.00;99742.09;5011088;28;20062;-71
2023/06/16 05:38:53;;;;;;;11.48;10.20;;;;;;;21.13;100.00;99806.00;5041523;28;20041;-70
2023/06/16 05:41:23;;;;;;;16.23;10.15;;;;;;;21.24;100.00;99820.69;5011117;28;20523;-66
2023/06/16 05:43:50;;;;;;;15.30;10.63;;;;;;;21.14;100.00;99807.69;5010935;28;20014;-68
2023/06/16 05:46:15;;;;;;;16.48;10.10;;;;;;;21.03;100.00;99780.78;5009380;28;20470;-70
2023/06/16 05:48:41;;;;;;;16.73;10.23;;;;;;;21.24;100.00;99805.78;5006653;28;20034;-66
2023/06/16 05:51:06;;;;;;;12.05;10.05;;;;;;;21.22;100.00;99799.72;5010769;28;20093;-65
2023/06/16 05:53:32;;;;;;;15.40;9.52;;;;;;;21.25;100.00;99780.41;5010829;28;20041;-67
2023/06/16 05:55:57;;;;;;;12.88;10.85;;;;;;;21.40;100.00;99805.53;5010054;28;20030;-66
2023/06/16 05:58:23;;;;;;;15.88;12.23;;;;;;;21.37;100.00;99785.44;5010311;28;20403;-67
2023/06/16 06:00:48;;;;;;;33.20;14.50;;;;;;;21.22;100.00;99746.34;5009079;28;20029;-68
2023/06/16 06:03:13;;;;;;;22.00;14.23;;;;;;;21.22;100.00;99744.59;5011027;28;20045;-67
2023/06/16 06:05:39;;;;;;;19.88;12.93;;;;;;;21.55;100.00;99793.88;5011172;28;20026;-66
2023/06/16 06:08:04;;;;;;;15.13;11.88;;;;;;;21.62;100.00;99790.25;5010642;28;20109;-67
2023/06/16 06:10:30;;;;;;;19.67;13.13;;;;;;;21.76;100.00;99787.38;5010834;28;20029;-67
2023/06/16 06:12:55;;;;;;;18.70;11.95;;;;;;;21.81;100.00;99793.38;5008902;28;20029;-67
2023/06/16 06:15:21;;;;;;;19.10;12.13;;;;;;;21.62;100.00;99751.72;5009826;28;20025;-68
2023/06/16 06:17:46;;;;;;;16.08;11.68;;;;;;;21.80;100.00;99792.50;5006388;28;20025;-68
2023/06/16 06:20:11;;;;;;;12.70;10.95;;;;;;;21.49;100.00;99742.31;5008692;28;20030;-72
2023/06/16 06:22:37;;;;;;;13.90;11.07;;;;;;;21.76;100.00;99784.75;5010617;28;20029;-71
2023/06/16 06:25:04;;;;;;;15.25;9.85;;;;;;;21.75;100.00;99783.00;5010307;28;20029;-71
2023/06/16 06:27:30;;;;;;;14.40;10.13;;;;;;;21.72;100.00;99783.94;5010376;28;20053;-69
2023/06/16 06:29:55;;;;;;;12.80;9.30;;;;;;;21.57;100.00;99742.19;5008332;28;20102;-71
2023/06/16 06:32:21;;;;;;;13.68;8.88;;;;;;;21.98;100.00;99790.38;5010470;28;20505;-67
2023/06/16 06:34:46;;;;;;;14.63;9.23;;;;;;;22.14;100.00;99802.34;5009948;28;20514;-68
2023/06/16 06:37:18;;;;;;;13.70;10.00;;;;;;;22.08;100.00;99781.44;5010280;28;20033;-70
2023/06/16 06:39:44;;;;;;;11.70;8.55;;;;;;;22.02;100.00;99780.69;5010107;28;20036;-68
2023/06/16 06:42:11;;;;;;;11.82;8.75;;;;;;;22.21;100.00;99797.78;5009737;28;20025;-70
2023/06/16 06:44:38;;;;;;;10.35;8.85;;;;;;;22.21;100.00;99794.31;5009496;28;20034;-68
2023/06/16 06:47:04;;;;;;;10.55;9.15;;;;;;;22.28;100.00;99798.50;5010211;28;20038;-72
2023/06/16 06:49:29;;;;;;;13.50;8.63;;;;;;;22.23;100.00;99782.88;5009785;28;20045;-70
2023/06/16 06:51:55;;;;;;;11.32;8.20;;;;;;;22.30;100.00;99766.03;5009912;28;20018;-69
2023/06/16 06:54:22;;;;;;;11.65;8.18;;;;;;;22.54;100.00;99789.22;5009935;28;20084;-72
2023/06/16 06:56:47;;;;;;;9.85;8.13;;;;;;;22.65;100.00;99802.13;5010232;28;20026;-73
2023/06/16 06:59:13;;;;;;;11.52;8.82;;;;;;;22.38;100.00;99743.97;5009847;28;20033;-73
2023/06/16 07:01:38;;;;;;;15.57;8.90;;;;;;;22.70;100.00;99787.09;5009854;28;20456;-72
2023/06/16 07:04:04;;;;;;;11.40;8.68;;;;;;;22.81;100.00;99800.00;5009575;28;20032;-72
2023/06/16 07:06:29;;;;;;;10.48;8.45;;;;;;;22.76;100.00;99782.53;5009849;28;20097;-68
2023/06/16 07:08:54;;;;;;;11.43;7.90;;;;;;;22.86;99.61;99790.22;5012513;28;20029;-72
2023/06/16 07:11:20;;;;;;;13.80;7.43;;;;;;;23.08;100.00;99786.13;5012160;28;20484;-68
2023/06/16 07:13:45;;;;;;;10.43;7.70;;;;;;;23.22;100.00;99804.22;5013607;28;20026;-71
2023/06/16 07:16:11;;;;;;;12.88;7.88;;;;;;;22.78;98.71;99740.41;5013586;28;20029;-75
2023/06/16 07:18:36;;;;;;;10.82;7.45;;;;;;;23.21;95.64;99797.22;5013458;28;20029;-72
2023/06/16 07:21:02;;;;;;;13.00;7.35;;;;;;;23.15;96.24;99794.72;5027392;28;20041;-68
2023/06/16 07:23:27;;;;;;;10.93;6.90;;;;;;;23.13;96.52;99800.94;5013543;28;20029;-69
2023/06/16 07:25:54;;;;;;;8.65;7.65;;;;;;;23.14;97.43;99800.91;5013166;28;20026;-70
2023/06/16 07:28:20;;;;;;;8.48;7.13;;;;;;;22.98;95.86;99789.03;5013065;28;20038;-70
2023/06/16 07:30:45;;;;;;;7.95;7.15;;;;;;;22.75;95.96;99749.25;5012234;28;20018;-70
2023/06/16 07:33:12;;;;;;;10.43;7.25;;;;;;;22.90;94.76;99776.94;5013752;28;20029;-68
2023/06/16 07:35:37;;;;;;;10.80;6.85;;;;;;;23.04;96.38;99802.91;5013567;28;20570;-68
2023/06/16 07:38:02;;;;;;;9.93;7.15;;;;;;;22.54;94.66;99705.03;5013320;28;20105;-69
2023/06/16 07:40:28;;;;;;;8.60;6.65;;;;;;;23.32;96.10;99804.84;5013363;28;20036;-72
2023/06/16 07:42:53;;;;;;;11.70;7.25;;;;;;;23.41;95.03;99806.38;5012649;28;20030;-70
2023/06/16 07:45:19;;;;;;;11.68;7.20;;;;;;;23.53;94.83;99813.09;5013137;28;20109;-73
2023/06/16 07:47:45;;;;;;;10.68;7.15;;;;;;;23.35;91.98;99798.63;5013615;28;20052;-69
2023/06/16 07:50:13;;;;;;;12.07;7.22;;;;;;;23.41;94.26;99809.91;5013026;28;20029;-68
2023/06/16 07:52:39;;;;;;;11.57;8.10;;;;;;;23.32;94.78;99799.59;5013307;28;20403;-67
2023/06/16 07:55:06;;;;;;;9.85;6.40;;;;;;;23.51;92.20;99807.00;5011742;28;20041;-68
2023/06/16 07:57:33;;;;;;;9.02;6.25;;;;;;;23.78;92.81;99820.34;5012408;28;20030;-72
2023/06/16 07:59:59;;;;;;;12.48;6.35;;;;;;;23.79;91.90;99809.75;5012853;28;20022;-70
2023/06/16 08:02:24;;;;;;;9.63;7.28;;;;;;;23.86;94.34;99811.31;5012658;28;20026;-68
2023/06/16 08:04:50;;;;;;;11.77;7.00;;;;;;;23.87;92.10;99807.72;5012791;28;20018;-69
2023/06/16 08:07:15;;;;;;;13.90;7.03;;;;;;;23.73;93.22;99752.78;5012787;28;20061;-68
2023/06/16 08:09:41;;;;;;;10.00;7.80;;;;;;;23.87;92.40;99785.78;5012506;28;20025;-69
2023/06/16 08:12:09;;;;;;;9.80;7.00;;;;;;;23.90;91.49;99797.13;5012413;28;20500;-68
2023/06/16 08:14:35;;;;;;;10.07;7.35;;;;;;;23.84;92.71;99807.84;5012288;28;20566;-67
2023/06/16 08:17:01;;;;;;;10.68;7.35;;;;;;;23.82;93.60;99804.38;5012561;28;20420;-68
2023/06/16 08:19:26;;;;;;;10.70;7.20;;;;;;;23.89;96.08;99791.91;5011714;28;20029;-68
2023/06/16 08:21:51;;;;;;;9.25;7.63;;;;;;;24.03;96.26;99804.69;5012417;28;20393;-68
2023/06/16 08:24:17;;;;;;;14.02;7.57;;;;;;;24.11;92.68;99786.00;5012476;28;20464;-67
2023/06/16 08:26:44;;;;;;;10.57;6.55;;;;;;;24.14;88.57;99778.00;5012231;28;20029;-68
2023/06/16 08:29:10;;;;;;;10.93;7.20;;;;;;;24.36;88.69;99801.94;5012362;28;20412;-68
2023/06/16 08:31:36;;;;;;;8.95;7.28;;;;;;;24.33;90.17;99786.22;5012495;28;20038;-68
2023/06/16 08:34:01;;;;;;;11.60;6.85;;;;;;;24.20;88.42;99761.97;5011221;28;20045;-68
2023/06/16 08:36:27;;;;;;;11.45;6.93;;;;;;;23.99;91.12;99740.66;5010778;28;20062;-67
2023/06/16 08:38:52;;;;;;;14.93;7.47;;;;;;;24.09;90.41;99766.72;5011793;28;20508;-69
2023/06/16 08:41:19;;;;;;;12.50;7.15;;;;;;;24.17;90.84;99786.66;5011925;28;20038;-69
2023/06/16 08:43:50;;;;;;;9.27;6.75;;;;;;;24.17;91.20;99778.75;5012380;28;20034;-68
2023/06/16 08:46:15;;;;;;;20.33;8.35;;;;;;;24.29;96.32;99781.94;5012158;28;20030;-69
2023/06/16 08:48:41;;;;;;;14.10;7.60;;;;;;;24.14;98.74;99765.69;5011971;28;20385;-69
2023/06/16 08:51:10;;;;;;;12.63;8.15;;;;;;;24.23;98.85;99761.91;5011887;28;20092;-67
2023/06/16 08:53:38;;;;;;;12.17;7.37;;;;;;;24.33;98.86;99776.53;5011862;28;20022;-66
2023/06/16 08:56:05;;;;;;;12.27;7.70;;;;;;;24.25;97.13;99760.09;5012105;28;20095;-67
2023/06/16 08:58:32;;;;;;;10.73;7.30;;;;;;;24.46;97.81;99795.50;5011810;28;20149;-68
2023/06/16 09:00:59;;;;;;;13.70;6.82;;;;;;;24.47;98.00;99791.91;5025894;28;20120;-69
2023/06/16 09:03:32;;;;;;;13.48;7.28;;;;;;;24.50;94.50;99797.13;5011305;28;20459;-66
2023/06/16 09:06:01;;;;;;;13.02;6.88;;;;;;;24.72;95.03;99807.00;5011492;28;20108;-67
2023/06/16 09:08:27;;;;;;;17.08;7.03;;;;;;;24.66;95.06;99781.69;5010206;28;20026;-68
2023/06/16 09:10:55;;;;;;;15.25;6.82;;;;;;;24.85;90.69;99794.28;5011901;28;20026;-68
2023/06/16 09:13:21;;;;;;;17.13;6.78;;;;;;;24.98;85.57;99808.78;5010280;28;20030;-68
2023/06/16 09:15:49;;;;;;;16.67;5.72;;;;;;;25.04;82.89;99813.88;5011259;28;20385;-67
2023/06/16 09:18:15;;;;;;;12.93;6.10;;;;;;;25.11;82.71;99813.66;4990489;28;20058;-68
2023/06/16 09:20:52;;;;;;;14.80;6.55;;;;;;;25.14;82.50;99803.00;5004596;28;20037;-71
2023/06/16 09:23:28;;;;;;;15.77;6.00;;;;;;;25.09;81.26;99799.66;4999946;28;20068;-68
2023/06/16 09:25:54;;;;;;;19.45;5.68;;;;;;;25.18;81.41;99812.53;5009981;28;20037;-73
2023/06/16 09:28:34;;;;;;;14.05;6.10;;;;;;;25.14;83.81;99801.22;5011004;28;20030;-69
2023/06/16 09:31:03;;;;;;;;;;;;;;;25.12;80.45;99812.75;5010214;28;20523;-69
2023/06/16 09:33:29;;;;;;;15.65;5.97;;;;;;;24.54;80.51;99735.41;5010049;28;19967;-66
2023/06/16 09:35:54;;;;;;;13.63;7.10;;;;;;;25.01;82.81;99795.50;5009548;28;20496;-68
2023/06/16 09:38:20;;;;;;;12.00;5.95;;;;;;;24.87;80.24;99766.91;5011205;28;20041;-68
2023/06/16 09:40:46;;;;;;;24.52;6.43;;;;;;;25.12;80.01;99800.41;5010792;28;20103;-67
2023/06/16 09:43:11;;;;;;;13.40;5.90;;;;;;;24.85;80.94;99734.41;5011510;28;20033;-67
2023/06/16 09:45:37;;;;;;;14.45;6.38;;;;;;;25.11;82.48;99767.00;5010789;28;20080;-66
2023/06/16 09:48:04;;;;;;;17.35;6.68;;;;;;;25.06;83.81;99763.66;5010915;28;20415;-70
2023/06/16 09:50:31;;;;;;;15.68;6.72;;;;;;;25.22;86.40;99781.59;5009848;28;20029;-66
2023/06/16 09:52:57;;;;;;;18.33;6.32;;;;;;;25.20;82.60;99786.94;5010794;28;20032;-66
2023/06/16 09:55:27;;;;;;;14.38;6.35;;;;;;;24.92;82.27;99726.28;5010980;28;20033;-67
2023/06/16 09:57:53;;;;;;;15.38;6.45;;;;;;;25.33;83.84;99777.69;5010830;28;20034;-69
2023/06/16 10:00:19;;;;;;;14.80;6.13;;;;;;;25.29;85.76;99776.03;4997686;28;20377;-71
2023/06/16 10:02:50;;;;;;;13.40;5.15;;;;;;;25.07;81.95;99761.88;5009873;28;20098;-71
2023/06/16 10:05:18;;;;;;;10.27;5.05;;;;;;;25.24;81.53;99777.13;4998378;28;20535;-70
2023/06/16 10:07:48;;;;;;;15.57;5.13;;;;;;;25.28;82.29;99776.09;5010440;28;20065;-69
2023/06/16 10:10:15;;;;;;;10.07;4.85;;;;;;;25.31;82.17;99774.22;5010320;28;20059;-67
2023/06/16 10:12:51;;;;;;;7.47;4.43;;;;;;;25.04;80.99;99716.16;5010540;28;20040;-72
2023/06/16 10:15:22;;;;;;;6.82;4.53;;;;;;;25.31;81.71;99761.00;5024400;28;20042;-68
2023/06/16 10:17:49;;;;;;;6.78;4.05;;;;;;;25.33;85.00;99763.59;5010545;28;20026;-68
2023/06/16 10:20:17;;;;;;;10.55;4.93;;;;;;;25.41;85.16;99753.66;5024318;28;20128;-68
2023/06/16 10:22:43;;;;;;;8.48;4.80;;;;;;;25.44;86.06;99721.81;5009987;28;20519;-68
2023/06/16 10:25:09;;;;;;;6.85;4.72;;;;;;;25.50;87.94;99720.75;5010588;28;20149;-66
2023/06/16 10:27:35;;;;;;;9.18;5.20;;;;;;;25.60;88.53;99727.41;5010229;28;20512;-70
2023/06/16 10:30:02;;;;;;;12.05;5.28;;;;;;;25.65;83.88;99730.72;5010326;28;20034;-71
2023/06/16 10:32:28;;;;;;;18.60;5.40;;;;;;;25.53;83.62;99710.03;5010011;28;20389;-68
2023/06/16 10:34:56;;;;;;;16.70;5.70;;;;;;;25.72;84.16;99720.81;5010126;28;20060;-66
2023/06/16 10:37:24;;;;;;;10.68;4.68;;;;;;;25.67;82.64;99718.34;5010354;28;20028;-66
2023/06/16 10:39:54;;;;;;;12.70;5.18;;;;;;;25.61;83.41;99723.84;5023948;28;20044;-69
2023/06/16 10:42:19;;;;;;;11.90;5.07;;;;;;;25.65;82.42;99714.03;5009900;28;20025;-69
2023/06/16 10:44:45;;;;;;;9.98;5.28;;;;;;;25.49;81.37;99687.31;5010265;28;20040;-69
2023/06/16 10:47:10;;;;;;;14.00;5.72;;;;;;;25.59;79.92;99703.69;5009880;28;20029;-68
2023/06/16 10:49:51;;;;;;;18.92;5.85;;;;;;;25.63;82.22;99694.72;5009680;28;20048;-68
2023/06/16 10:52:17;;;;;;;13.23;5.57;;;;;;;25.39;81.62;99639.22;4997110;28;20033;-69
2023/06/16 10:54:48;;;;;;;13.05;5.43;;;;;;;25.62;78.55;99692.97;5009699;28;20038;-68
2023/06/16 10:57:14;;;;;;;15.00;5.05;;;;;;;25.38;80.24;99634.84;5010033;28;20065;-69
2023/06/16 11:00:06;;;;;;;10.27;5.07;;;;;;;25.58;82.95;99655.22;5009849;28;20690;-74
2023/06/16 11:02:34;;;;;;;8.35;4.45;;;;;;;25.41;81.68;99633.88;5010068;28;20026;-71
2023/06/16 11:05:08;;;;;;;9.43;4.30;;;;;;;25.35;81.82;99637.59;5009660;28;20515;-71
2023/06/16 11:07:37;;;;;;;12.50;4.85;;;;;;;25.26;80.95;99612.38;4997141;28;20045;-70
2023/06/16 11:10:03;;;;;;;9.70;4.55;;;;;;;25.13;81.22;99584.69;4997386;28;20417;-73
2023/06/16 11:12:28;;;;;;;9.68;4.30;;;;;;;25.05;81.26;99571.78;5008483;28;20079;-70
2023/06/16 11:14:55;;;;;;;11.40;4.18;;;;;;;24.98;83.08;99557.94;5007446;28;20092;-70
2023/06/16 11:17:22;;;;;;;6.88;4.20;;;;;;;24.99;84.00;99574.66;5009311;28;20058;-70
2023/06/16 11:19:51;;;;;;;11.18;4.78;;;;;;;24.77;81.77;99549.03;5010126;28;20026;-74
2023/06/16 11:22:26;;;;;;;19.55;5.60;;;;;;;24.99;80.27;99593.97;5009746;28;20658;-69